KHIB/HIB METAR and TAF weather

Enter ICAO airport designator
Station Type Date Time Source
KHIB METAR 2018/12/15 03:53 UTC NOAA

KHIB 150353Z AUTO 00000KT 10SM CLR M09/M11 A3010 RMK AO2 SLP219 I1000 T10941106


Station Type Date Time Source
KHIB Decoded METAR 2018/12/15 03:53 UTC NOAA

CHISHOLM-HIBBING AIRPORT, MN, United States (KHIB) 47-23N 92-50W 412M
Dec 14, 2018 - 10:53 PM EST / 2018.12.15 0353 UTC
Wind: Calm:0
Visibility: 10 mile(s):0
Sky conditions: clear
Temperature: 15.1 F (-9.4 C)
Dew Point: 12.9 F (-10.6 C)
Relative Humidity: 90%
Pressure (altimeter): 30.1 in. Hg (1019 hPa)
ob: KHIB 150353Z AUTO 00000KT 10SM CLR M09/M11 A3010 RMK AO2 SLP219 I1000 T10941106
cycle: 4

Station Type Date Time Source
KHIB TAF 2018/12/14 18:22 UTC NOAA

TAF KHIB 141720Z 1418/1518 25007KT P6SM SKC
FM151200 18005KT P6SM SKC


Example: see airport list